Terminal Aerodrome Forecast
Issued by NWS

Home | Current Version | Previous Version | Text Only | Print | Product List | Glossary On
Versions: 1 2 3 4 5 6 7 8 9 10 11 12 13 14 15 16 17 18 19 20 21 22 23
000
FTUS43 KAPX 211700
TAFAPN
TAF
KAPN 211734Z 2118/2218 34012G23KT P6SM -RA OVC012
      TEMPO 2118/2120 5SM RA
     FM212000 34014G22KT P6SM OVC025
     FM220000 33009KT P6SM BKN030
     FM221400 32009G15KT P6SM BKN035
     FM221700 30007G14KT P6SM SCT040=

USA.gov is the U.S. government's official web portal to all federal, state and local government web resources and services.